Time;durP1;ratioP1;P1;durP2;ratioP2;P2;SDS_P1;SDS_P2;PMS_P1;PMS_P2;Temp;Humidity;BMP_temperature;BMP_pressure;BME280_temperature;BME280_humidity;BME280_pressure;Samples;Min_cycle;Max_cycle;Signal;HPM_P1;HPM_P2
2023/01/27 00:00:34;;;;;;;9.30;2.53;;;;;;;5.69;83.11;98299.53;5095399;28;20183;-90
2023/01/27 00:03:00;;;;;;;4.37;2.67;;;;;;;5.82;82.87;98295.44;5095740;28;20233;-90
2023/01/27 00:05:25;;;;;;;4.60;2.10;;;;;;;5.98;82.30;98295.59;5094780;28;20590;-90
2023/01/27 00:07:51;;;;;;;3.67;2.10;;;;;;;6.09;81.23;98270.78;5095891;28;20300;-91
2023/01/27 00:10:18;;;;;;;2.73;1.50;;;;;;;5.67;81.92;98264.13;5095432;28;20663;-89
2023/01/27 00:15:29;;;;;;;6.53;2.53;;;;;;;5.26;83.63;98264.28;5095804;28;20204;-89
2023/01/27 00:17:55;;;;;;;2.73;1.30;;;;;;;5.16;84.55;98263.00;5093976;28;20176;-90
2023/01/27 00:24:34;;;;;;;2.53;1.20;;;;;;;5.09;85.23;98265.94;5092866;28;20191;-89
2023/01/27 00:26:12;;;;;;;5.37;2.07;;;;;;;4.80;86.34;98259.41;5095684;28;20171;-90
2023/01/27 00:28:39;;;;;;;3.25;1.95;;;;;;;4.66;86.36;98264.38;5094972;28;20176;-89
2023/01/27 00:33:56;;;;;;;3.03;1.90;;;;;;;4.64;88.13;98258.41;5053248;28;20707;-90
2023/01/27 00:36:22;;;;;;;3.53;1.83;;;;;;;4.57;87.64;98244.84;5088594;28;20192;-89
2023/01/27 00:38:47;;;;;;;3.17;2.13;;;;;;;4.76;87.55;98256.13;5094730;28;20180;-90
2023/01/27 00:41:19;;;;;;;2.27;1.70;;;;;;;4.72;86.60;98256.31;5093806;28;20184;-89
2023/01/27 00:43:46;;;;;;;4.50;2.27;;;;;;;4.89;87.14;98259.88;5094737;28;20221;-89
2023/01/27 00:46:12;;;;;;;7.30;2.90;;;;;;;5.01;85.55;98262.81;5094626;28;20176;-90
2023/01/27 00:48:38;;;;;;;4.33;2.67;;;;;;;5.04;85.73;98262.69;5093774;28;20184;-89
2023/01/27 00:51:04;;;;;;;3.87;2.40;;;;;;;4.89;86.63;98270.25;5094488;28;20237;-90
2023/01/27 00:53:30;;;;;;;5.63;2.73;;;;;;;5.14;85.51;98272.59;5094695;28;20172;-88
2023/01/27 00:55:57;;;;;;;7.47;3.47;;;;;;;5.21;84.88;98261.06;5094654;28;20614;-89
2023/01/27 00:58:23;;;;;;;5.77;2.87;;;;;;;5.30;83.35;98250.22;5094672;28;20176;-89
2023/01/27 01:00:49;;;;;;;5.13;2.70;;;;;;;5.31;83.91;98246.72;5094354;28;20188;-90
2023/01/27 01:03:14;;;;;;;5.00;2.43;;;;;;;5.44;83.32;98263.44;5094346;28;20188;-90
2023/01/27 01:05:40;;;;;;;5.27;3.13;;;;;;;5.41;83.40;98260.13;5094830;28;20226;-89
2023/01/27 01:08:05;;;;;;;5.00;3.00;;;;;;;5.51;83.34;98262.25;5092794;28;20176;-90
2023/01/27 01:10:31;;;;;;;3.77;2.33;;;;;;;5.66;82.02;98257.25;5093454;28;20190;-90
2023/01/27 01:12:56;;;;;;;3.93;2.00;;;;;;;5.68;81.76;98251.06;5094287;28;20173;-90
2023/01/27 01:15:21;;;;;;;6.40;2.97;;;;;;;5.69;81.79;98251.88;5094433;28;20205;-90
2023/01/27 01:17:47;;;;;;;6.27;2.40;;;;;;;5.78;81.99;98235.88;5094572;28;20185;-89
2023/01/27 01:20:13;;;;;;;3.43;2.37;;;;;;;5.98;80.96;98231.41;5093993;28;20176;-89
2023/01/27 01:22:38;;;;;;;4.87;2.33;;;;;;;6.07;81.15;98225.78;5093977;28;20613;-90
2023/01/27 01:25:04;;;;;;;4.67;2.57;;;;;;;6.11;80.52;98226.44;5093874;28;20172;-89
2023/01/27 01:27:30;;;;;;;5.37;2.73;;;;;;;6.19;81.29;98221.72;5094143;28;20183;-89
2023/01/27 01:29:55;;;;;;;4.60;2.37;;;;;;;6.31;80.03;98205.50;5093705;28;20202;-90
2023/01/27 01:32:21;;;;;;;4.77;2.30;;;;;;;6.43;78.85;98188.41;5092935;28;20187;-90
2023/01/27 01:34:46;;;;;;;4.17;1.87;;;;;;;6.40;78.26;98181.63;5094059;28;20269;-89
2023/01/27 01:37:11;;;;;;;4.83;2.17;;;;;;;6.35;78.63;98170.59;5093684;28;20351;-90
2023/01/27 01:39:37;;;;;;;4.53;2.27;;;;;;;6.18;78.56;98168.03;5093214;28;20636;-90
2023/01/27 01:42:02;;;;;;;2.80;1.80;;;;;;;6.11;78.86;98175.28;5092644;28;20239;-90
2023/01/27 01:44:30;;;;;;;6.30;2.47;;;;;;;6.07;79.47;98172.91;5093818;28;20186;-89
2023/01/27 01:46:56;;;;;;;4.10;1.90;;;;;;;6.03;79.50;98174.81;5092669;28;20188;-90
2023/01/27 01:49:36;;;;;;;4.30;2.03;;;;;;;6.03;80.43;98176.56;5093368;28;20726;-90
2023/01/27 01:52:12;;;;;;;5.90;2.33;;;;;;;6.09;80.41;98174.50;5093521;28;20182;-90
2023/01/27 01:54:45;;;;;;;3.50;2.00;;;;;;;6.16;79.58;98169.84;5093424;28;20179;-88
2023/01/27 01:57:17;;;;;;;4.37;1.97;;;;;;;6.25;79.04;98169.38;5092754;28;20189;-89
2023/01/27 01:59:56;;;;;;;4.40;2.67;;;;;;;5.97;80.14;98185.53;5092454;28;20164;-89
2023/01/27 02:02:23;;;;;;;4.40;2.03;;;;;;;5.77;81.01;98171.78;5092360;28;20255;-90
2023/01/27 02:05:17;;;;;;;6.80;2.13;;;;;;;5.86;80.95;98173.97;5093282;28;20183;-89
2023/01/27 02:08:04;;;;;;;6.53;3.37;;;;;;;5.78;80.83;98178.66;5092554;28;20168;-90
2023/01/27 02:10:31;;;;;;;7.27;2.33;;;;;;;5.79;81.14;98190.75;5092512;28;20634;-90
2023/01/27 02:12:57;;;;;;;6.57;2.77;;;;;;;5.68;82.05;98191.28;5093088;28;20180;-90
2023/01/27 02:15:22;;;;;;;7.97;3.10;;;;;;;5.90;81.79;98186.72;5092474;28;20183;-89
2023/01/27 02:17:48;;;;;;;6.43;2.50;;;;;;;5.96;81.51;98185.59;5093068;28;20184;-90
2023/01/27 02:20:34;;;;;;;6.17;2.87;;;;;;;5.78;81.28;98183.88;5093235;28;20704;-90
2023/01/27 02:23:06;;;;;;;6.07;2.93;;;;;;;5.88;81.71;98180.78;5096424;28;20164;-90
2023/01/27 02:25:34;;;;;;;4.60;2.13;;;;;;;5.71;81.84;98192.88;5096684;28;20215;-89
2023/01/27 02:28:06;;;;;;;3.03;1.83;;;;;;;5.79;82.17;98198.56;5097797;28;20176;-90
2023/01/27 02:30:31;;;;;;;5.07;2.37;;;;;;;5.86;81.75;98198.22;5096389;28;20215;-90
2023/01/27 02:32:57;;;;;;;4.27;2.20;;;;;;;5.88;82.20;98195.53;5097216;28;20180;-90
2023/01/27 02:35:31;;;;;;;5.83;2.57;;;;;;;5.76;82.30;98189.16;5096492;28;20568;-90
2023/01/27 02:37:57;;;;;;;4.20;2.00;;;;;;;5.65;83.33;98177.56;5097568;28;20592;-90
2023/01/27 02:40:24;;;;;;;5.40;2.13;;;;;;;5.73;83.05;98171.09;5095994;28;20172;-90
2023/01/27 02:42:56;;;;;;;4.97;2.07;;;;;;;5.97;82.31;98169.09;5096247;28;20241;-89
2023/01/27 02:45:22;;;;;;;6.67;2.80;;;;;;;6.23;80.91;98175.59;5097545;28;20579;-90
2023/01/27 02:47:47;;;;;;;5.07;2.00;;;;;;;6.32;81.33;98172.50;5096182;28;20210;-90
2023/01/27 02:50:12;;;;;;;4.50;2.07;;;;;;;6.41;80.61;98166.84;5096893;28;20203;-90
2023/01/27 02:52:38;;;;;;;4.77;2.47;;;;;;;6.30;80.74;98156.97;5096892;28;20259;-89
2023/01/27 02:55:04;;;;;;;3.90;2.10;;;;;;;6.25;79.97;98152.94;5096586;28;20176;-89
2023/01/27 02:57:29;;;;;;;5.87;2.03;;;;;;;6.19;80.76;98151.47;5095649;28;20180;-89
2023/01/27 02:59:55;;;;;;;4.30;1.87;;;;;;;6.32;80.44;98149.94;5096706;28;20176;-89
2023/01/27 03:02:21;;;;;;;2.63;1.57;;;;;;;6.25;79.69;98153.78;5096580;28;20184;-89
2023/01/27 03:04:50;;;;;;;5.83;2.10;;;;;;;6.15;80.69;98147.34;5096592;28;20214;-90
2023/01/27 03:07:15;;;;;;;4.23;2.00;;;;;;;6.19;80.32;98151.47;5095736;28;20191;-89
2023/01/27 03:09:41;;;;;;;3.63;1.87;;;;;;;6.27;80.07;98138.06;5096909;28;20195;-89
2023/01/27 03:12:18;;;;;;;4.67;2.00;;;;;;;6.44;79.42;98136.31;5095704;28;20176;-89
2023/01/27 03:20:12;;;;;;;5.07;1.83;;;;;;;6.76;78.46;98140.66;5096802;28;20192;-89
2023/01/27 03:22:37;;;;;;;3.67;1.47;;;;;;;6.83;77.90;98138.56;5096179;28;20264;-89
2023/01/27 03:25:03;;;;;;;4.57;2.27;;;;;;;6.86;77.80;98133.19;5095140;28;20618;-90
2023/01/27 03:27:29;;;;;;;4.93;1.77;;;;;;;6.91;77.82;98132.94;5095730;28;20188;-90
2023/01/27 03:29:54;;;;;;;4.17;1.70;;;;;;;6.97;77.13;98127.41;5095003;28;20539;-90
2023/01/27 03:32:23;;;;;;;4.20;1.70;;;;;;;7.01;77.24;98150.59;5094885;28;20653;-89
2023/01/27 03:34:49;;;;;;;5.87;2.30;;;;;;;6.98;77.63;98163.78;5095121;28;20626;-90
2023/01/27 03:48:11;;;;;;;2.47;1.43;;;;;;;7.26;77.16;98160.53;5096426;28;20233;-90
2023/01/27 03:50:42;;;;;;;4.50;2.20;;;;;;;7.24;77.22;98146.75;5095937;28;20224;-90
2023/01/27 03:53:11;;;;;;;3.87;2.37;;;;;;;7.24;77.70;98144.97;5095020;28;20173;-89
2023/01/27 03:55:37;;;;;;;5.47;2.40;;;;;;;7.29;77.04;98152.53;5094919;28;20271;-90
2023/01/27 03:58:17;;;;;;;8.83;2.40;;;;;;;7.37;77.03;98145.13;5094587;28;20184;-90
2023/01/27 04:00:44;;;;;;;5.53;2.53;;;;;;;7.51;76.62;98137.41;5095863;28;20586;-90
2023/01/27 04:08:41;;;;;;;3.67;2.23;;;;;;;7.35;75.52;98115.72;5095391;28;20230;-90
2023/01/27 04:13:50;;;;;;;4.93;2.83;;;;;;;7.18;76.34;98102.81;5095716;28;20180;-90
2023/01/27 04:16:18;;;;;;;9.37;2.40;;;;;;;7.15;76.92;98096.00;5095072;28;20180;-90
2023/01/27 04:18:47;;;;;;;5.43;2.13;;;;;;;7.11;76.61;98073.63;5095046;28;20255;-89
2023/01/27 04:21:12;;;;;;;6.27;2.23;;;;;;;7.04;77.52;98061.88;5095548;28;20186;-89
2023/01/27 04:23:38;;;;;;;3.80;1.67;;;;;;;6.93;77.66;98058.16;5095459;28;20184;-89
2023/01/27 04:26:03;;;;;;;10.37;2.77;;;;;;;6.90;77.84;98056.56;5094897;28;20634;-89
2023/01/27 04:28:29;;;;;;;7.77;1.53;;;;;;;6.68;78.51;98082.94;5094956;28;20176;-89
2023/01/27 04:30:54;;;;;;;7.60;2.67;;;;;;;6.66;78.50;98086.53;5094811;28;20203;-90
2023/01/27 04:33:20;;;;;;;9.10;2.57;;;;;;;6.67;78.50;98073.44;5095081;28;20180;-90
2023/01/27 04:35:45;;;;;;;6.67;1.90;;;;;;;6.67;78.81;98056.97;5094728;28;20177;-89
2023/01/27 04:38:12;;;;;;;4.47;2.23;;;;;;;6.56;78.75;98064.53;5094028;28;20192;-90
2023/01/27 04:40:37;;;;;;;5.70;2.50;;;;;;;6.58;79.01;98073.09;5094921;28;20183;-90
2023/01/27 04:43:03;;;;;;;8.57;2.70;;;;;;;6.73;78.43;98078.31;5093962;28;20189;-89
2023/01/27 04:45:28;;;;;;;3.93;1.80;;;;;;;6.78;78.04;98089.34;5094099;28;20210;-90
2023/01/27 04:47:54;;;;;;;5.47;1.80;;;;;;;6.80;77.55;98095.31;5094635;28;20177;-89
2023/01/27 04:50:19;;;;;;;4.37;2.13;;;;;;;6.67;78.48;98094.28;5093692;28;20257;-90
2023/01/27 04:52:45;;;;;;;7.13;2.70;;;;;;;6.82;78.20;98111.69;5094346;28;20176;-89
2023/01/27 04:55:10;;;;;;;6.20;2.87;;;;;;;6.84;77.83;98114.19;5093642;28;20184;-89
2023/01/27 04:57:36;;;;;;;5.33;1.93;;;;;;;7.00;78.18;98106.38;5093336;28;20168;-89
2023/01/27 05:00:05;;;;;;;8.90;3.27;;;;;;;7.15;76.74;98110.78;5094190;28;20176;-89
2023/01/27 05:02:31;;;;;;;4.93;2.57;;;;;;;7.12;76.94;98113.53;5093726;28;20249;-89
2023/01/27 05:04:57;;;;;;;3.83;2.43;;;;;;;7.08;76.42;98110.25;5094410;28;20263;-89
2023/01/27 05:07:22;;;;;;;4.00;2.33;;;;;;;7.13;75.91;98117.81;5094140;28;20634;-89
2023/01/27 05:09:48;;;;;;;6.33;2.80;;;;;;;7.09;76.17;98117.16;5093012;28;20204;-89
2023/01/27 05:12:14;;;;;;;4.77;1.97;;;;;;;7.07;75.50;98115.56;5092973;28;20328;-89
2023/01/27 05:14:39;;;;;;;5.87;3.50;;;;;;;7.08;75.76;98117.22;5093033;28;20185;-89
2023/01/27 05:17:04;;;;;;;9.63;5.50;;;;;;;7.03;76.80;98117.50;5092337;28;20185;-89
2023/01/27 05:19:30;;;;;;;8.80;3.53;;;;;;;7.08;76.20;98114.63;5090847;28;20619;-89
2023/01/27 05:21:55;;;;;;;4.30;2.37;;;;;;;7.09;75.51;98101.53;5090555;28;20180;-89
2023/01/27 05:24:21;;;;;;;7.87;3.17;;;;;;;7.08;75.29;98099.00;5090580;28;20328;-89
2023/01/27 05:26:49;;;;;;;4.37;2.80;;;;;;;6.97;76.77;98102.19;5091811;28;20252;-89
2023/01/27 05:29:14;;;;;;;5.37;2.53;;;;;;;7.01;76.29;98110.69;5090480;28;20257;-89
2023/01/27 05:31:40;;;;;;;7.50;3.50;;;;;;;6.87;76.34;98116.63;5090826;28;20188;-89
2023/01/27 05:34:05;;;;;;;6.27;3.13;;;;;;;6.78;76.70;98120.59;5091111;28;20168;-89
2023/01/27 05:36:31;;;;;;;6.87;3.37;;;;;;;6.90;76.36;98126.03;5093504;28;20530;-89
2023/01/27 05:38:57;;;;;;;6.50;3.67;;;;;;;6.86;76.55;98121.94;5092739;28;20507;-88
2023/01/27 05:41:23;;;;;;;6.57;2.87;;;;;;;6.56;76.85;98106.19;5092786;28;20614;-89
2023/01/27 05:43:53;;;;;;;9.93;3.13;;;;;;;6.38;77.82;98097.56;5093608;28;20200;-88
2023/01/27 05:46:24;;;;;;;7.97;4.17;;;;;;;6.36;78.11;98109.84;5093470;28;20178;-88
2023/01/27 05:48:55;;;;;;;6.57;3.00;;;;;;;6.41;77.62;98123.44;5093426;28;20532;-88
2023/01/27 05:51:22;;;;;;;8.33;3.30;;;;;;;6.49;77.60;98125.66;5092416;28;20252;-89
2023/01/27 05:53:48;;;;;;;10.60;3.73;;;;;;;6.62;76.84;98124.09;5093473;28;20241;-89
2023/01/27 05:56:16;;;;;;;10.80;4.57;;;;;;;6.40;77.61;98126.97;5092629;28;20187;-89
2023/01/27 05:58:42;;;;;;;25.87;4.57;;;;;;;6.47;77.70;98127.50;5092320;28;20215;-88
2023/01/27 06:01:23;;;;;;;10.83;3.60;;;;;;;6.33;78.27;98136.00;5092334;28;20600;-89
2023/01/27 06:03:49;;;;;;;13.13;4.33;;;;;;;6.04;79.68;98144.44;5092301;28;20169;-89
2023/01/27 06:06:19;;;;;;;19.60;4.43;;;;;;;6.02;80.56;98156.69;5092491;28;20183;-89
2023/01/27 06:08:45;;;;;;;9.33;3.80;;;;;;;6.23;80.04;98153.03;5092487;28;20176;-89
2023/01/27 06:11:11;;;;;;;24.77;5.23;;;;;;;6.30;80.04;98145.72;5092055;28;20219;-89
2023/01/27 06:13:40;;;;;;;13.63;6.07;;;;;;;6.08;81.02;98156.38;5092960;28;20176;-89
2023/01/27 06:16:08;;;;;;;14.83;5.87;;;;;;;6.01;81.40;98149.81;5093100;28;20180;-89
2023/01/27 06:18:34;;;;;;;8.53;4.00;;;;;;;6.17;80.98;98158.53;5092835;28;20272;-89
2023/01/27 06:21:01;;;;;;;20.17;6.13;;;;;;;6.18;80.73;98162.81;5092361;28;20227;-89
2023/01/27 06:23:27;;;;;;;18.67;5.63;;;;;;;6.08;82.00;98161.56;5092049;28;20616;-89
2023/01/27 06:25:53;;;;;;;19.70;7.90;;;;;;;6.39;80.75;98159.13;5093282;28;20196;-89
2023/01/27 06:28:20;;;;;;;20.47;5.77;;;;;;;6.42;80.37;98152.91;5092511;28;20219;-89
2023/01/27 06:30:45;;;;;;;18.97;5.30;;;;;;;6.34;80.66;98152.47;5093184;28;20639;-89
2023/01/27 06:33:11;;;;;;;8.73;4.33;;;;;;;6.27;81.09;98145.88;5091994;28;20191;-90
2023/01/27 06:35:38;;;;;;;10.37;4.50;;;;;;;6.34;80.80;98150.69;5092139;28;20187;-89
2023/01/27 06:38:05;;;;;;;9.33;3.67;;;;;;;6.21;81.97;98147.03;5093027;28;20272;-89
2023/01/27 06:40:32;;;;;;;9.03;4.93;;;;;;;6.40;81.30;98147.78;5091863;28;20202;-89
2023/01/27 06:42:58;;;;;;;11.43;3.57;;;;;;;6.51;80.90;98140.25;5092770;28;20241;-90
2023/01/27 06:45:24;;;;;;;11.70;4.00;;;;;;;6.46;80.40;98137.06;5093193;28;20180;-90
2023/01/27 06:47:55;;;;;;;11.80;3.87;;;;;;;6.36;81.69;98135.84;5092233;28;20202;-89
2023/01/27 06:50:20;;;;;;;10.27;4.30;;;;;;;6.44;81.28;98133.72;5092172;28;20398;-89
2023/01/27 06:52:46;;;;;;;8.37;4.07;;;;;;;6.41;81.33;98138.22;5092867;28;20267;-89
2023/01/27 06:55:11;;;;;;;7.60;3.77;;;;;;;6.46;81.31;98138.81;5092149;28;20176;-90
2023/01/27 06:57:37;;;;;;;6.50;3.83;;;;;;;6.45;81.14;98134.53;5091852;28;20185;-90
2023/01/27 07:00:03;;;;;;;6.50;2.63;;;;;;;6.43;81.65;98150.22;5092123;28;20259;-91
2023/01/27 07:02:29;;;;;;;7.97;3.57;;;;;;;6.39;81.24;98153.91;5093042;28;20222;-90
2023/01/27 07:04:54;;;;;;;8.27;3.63;;;;;;;6.40;81.09;98147.78;5093024;28;20180;-90
2023/01/27 07:07:20;;;;;;;6.90;3.60;;;;;;;6.20;82.34;98145.38;5095380;28;20187;-90
2023/01/27 07:09:45;;;;;;;8.70;3.57;;;;;;;6.30;82.66;98150.94;5097053;28;20218;-90
2023/01/27 07:12:11;;;;;;;7.10;3.30;;;;;;;6.45;82.17;98143.19;5096726;28;20294;-90
2023/01/27 07:14:36;;;;;;;8.50;2.60;;;;;;;6.66;81.88;98146.41;5095568;28;20275;-90
2023/01/27 07:17:01;;;;;;;6.77;2.87;;;;;;;6.61;81.23;98138.84;5095632;28;20330;-90
2023/01/27 07:19:27;;;;;;;7.83;3.10;;;;;;;6.24;82.91;98144.28;5096463;28;20238;-91
2023/01/27 07:21:52;;;;;;;5.17;2.23;;;;;;;6.23;83.34;98142.59;5095307;28;20206;-89
2023/01/27 07:24:18;;;;;;;6.10;3.10;;;;;;;6.10;84.04;98134.59;5096557;28;20251;-89
2023/01/27 07:26:49;;;;;;;6.80;2.67;;;;;;;6.27;83.75;98125.91;5094388;28;20192;-89
2023/01/27 07:29:14;;;;;;;5.00;2.60;;;;;;;6.35;84.01;98125.50;5094633;28;20200;-90
2023/01/27 07:31:40;;;;;;;6.60;2.40;;;;;;;6.43;84.03;98124.19;5096160;28;20183;-90
2023/01/27 07:34:05;;;;;;;5.17;2.57;;;;;;;6.51;84.07;98123.78;5095525;28;20176;-90
2023/01/27 07:36:31;;;;;;;4.77;2.33;;;;;;;6.43;84.75;98115.53;5095963;28;20180;-89
2023/01/27 07:38:56;;;;;;;5.43;2.17;;;;;;;6.43;85.49;98119.00;5096295;28;20168;-90
2023/01/27 07:41:23;;;;;;;3.80;2.33;;;;;;;6.59;84.55;98117.28;5095930;28;20180;-90
2023/01/27 07:43:49;;;;;;;3.87;1.90;;;;;;;6.71;84.16;98110.56;5095241;28;20272;-90
2023/01/27 07:46:14;;;;;;;4.40;2.20;;;;;;;6.76;83.53;98114.59;5096270;28;20196;-90
2023/01/27 07:48:40;;;;;;;7.47;3.13;;;;;;;6.91;83.33;98117.31;5094859;28;20610;-90
2023/01/27 07:51:05;;;;;;;5.43;2.80;;;;;;;6.69;84.02;98105.44;5095721;28;20623;-89
2023/01/27 07:53:31;;;;;;;3.60;2.13;;;;;;;6.89;83.96;98108.75;5111749;28;20635;-89
2023/01/27 07:55:59;;;;;;;5.30;2.53;;;;;;;7.01;82.86;98095.06;5094899;28;20176;-90
2023/01/27 07:58:24;;;;;;;6.37;2.00;;;;;;;6.95;83.50;98090.16;5109643;28;20176;-90
2023/01/27 08:00:50;;;;;;;4.43;1.70;;;;;;;6.77;84.14;98090.25;5093580;28;20175;-90
2023/01/27 08:03:24;;;;;;;6.80;2.40;;;;;;;6.87;84.94;98081.94;5093448;28;20637;-90
2023/01/27 08:05:50;;;;;;;2.93;1.77;;;;;;;6.93;84.15;98071.19;5092364;28;20171;-89
2023/01/27 08:08:16;;;;;;;5.83;2.80;;;;;;;7.13;83.42;98070.91;5093250;28;20172;-90
2023/01/27 08:10:45;;;;;;;4.07;2.47;;;;;;;6.93;83.98;98069.44;5093650;28;20666;-89
2023/01/27 08:13:12;;;;;;;4.87;2.70;;;;;;;6.90;83.84;98072.19;5095436;28;20226;-90
2023/01/27 08:15:37;;;;;;;4.23;2.07;;;;;;;6.94;83.97;98070.28;5095645;28;20183;-90
2023/01/27 08:18:02;;;;;;;3.87;1.50;;;;;;;6.72;84.43;98081.84;5094815;28;20176;-90
2023/01/27 08:20:28;;;;;;;2.90;1.23;;;;;;;6.89;84.56;98085.31;5094191;28;20175;-90
2023/01/27 08:22:54;;;;;;;7.23;1.40;;;;;;;6.82;85.22;98083.03;5111219;28;20172;-90
2023/01/27 08:25:20;;;;;;;3.30;1.40;;;;;;;6.91;84.90;98078.25;5111118;28;20541;-90
2023/01/27 08:27:49;;;;;;;2.57;1.00;;;;;;;6.84;85.04;98084.72;5095133;28;20176;-91
2023/01/27 08:30:15;;;;;;;3.07;1.53;;;;;;;6.79;84.53;98087.56;5094327;28;20268;-90
2023/01/27 08:32:40;;;;;;;1.87;1.10;;;;;;;6.62;85.94;98090.25;5095000;28;20184;-90
2023/01/27 08:35:06;;;;;;;2.67;1.00;;;;;;;6.51;86.62;98093.41;5095187;28;20187;-90
2023/01/27 08:37:31;;;;;;;2.43;1.37;;;;;;;6.68;85.83;98095.94;5094737;28;20204;-90
2023/01/27 08:39:57;;;;;;;4.73;2.07;;;;;;;6.89;85.33;98096.56;5094005;28;20246;-90
2023/01/27 08:42:22;;;;;;;2.17;1.27;;;;;;;6.82;85.11;98095.22;5094747;28;20249;-88
2023/01/27 08:44:48;;;;;;;3.57;1.50;;;;;;;6.84;85.08;98095.97;5094015;28;20259;-90
2023/01/27 08:47:13;;;;;;;3.17;1.50;;;;;;;6.58;86.20;98094.75;5094696;28;20182;-90
2023/01/27 08:49:38;;;;;;;5.77;1.90;;;;;;;6.60;86.40;98087.69;5094760;28;20196;-89
2023/01/27 08:52:04;;;;;;;3.60;2.10;;;;;;;7.02;84.45;98075.91;5110582;28;20172;-89
2023/01/27 08:54:29;;;;;;;2.93;1.60;;;;;;;6.75;85.52;98080.84;5110666;28;20191;-90
2023/01/27 08:56:55;;;;;;;5.50;1.93;;;;;;;6.92;85.02;98066.91;5094504;28;20595;-89
2023/01/27 08:59:20;;;;;;;4.73;1.57;;;;;;;6.90;84.09;98076.56;5094376;28;20176;-90
2023/01/27 09:01:46;;;;;;;10.73;1.77;;;;;;;6.74;84.57;98066.97;5110618;28;20249;-88
2023/01/27 09:04:11;;;;;;;3.37;1.73;;;;;;;6.48;85.73;98067.53;5093397;28;20241;-90
2023/01/27 09:06:37;;;;;;;5.27;2.40;;;;;;;6.47;86.44;98063.25;5093585;28;20268;-90
2023/01/27 09:09:08;;;;;;;4.17;2.03;;;;;;;6.36;87.29;98068.19;5093227;28;20267;-91
2023/01/27 09:11:38;;;;;;;5.33;2.80;;;;;;;6.60;86.26;98066.06;5093217;28;20200;-90
2023/01/27 09:14:04;;;;;;;5.20;2.57;;;;;;;6.65;86.01;98071.84;5094212;28;20178;-90
2023/01/27 09:16:29;;;;;;;4.80;2.20;;;;;;;6.78;86.15;98065.91;5094291;28;20172;-90
2023/01/27 09:18:56;;;;;;;4.00;1.80;;;;;;;6.96;84.92;98063.22;5110281;28;20266;-90
2023/01/27 09:21:22;;;;;;;5.93;2.67;;;;;;;6.95;85.42;98066.72;5110529;28;20321;-90
2023/01/27 09:23:48;;;;;;;7.30;2.80;;;;;;;7.00;85.59;98062.94;5110809;28;20238;-90
2023/01/27 09:26:13;;;;;;;8.07;2.77;;;;;;;7.26;84.14;98058.88;5094169;28;20586;-89
2023/01/27 09:28:39;;;;;;;5.67;2.10;;;;;;;7.27;84.24;98060.56;5110903;28;20262;-90
2023/01/27 09:31:04;;;;;;;7.20;1.90;;;;;;;7.40;83.16;98058.94;5093826;28;20587;-90
2023/01/27 09:33:30;;;;;;;7.10;2.10;;;;;;;7.59;82.81;98056.97;5093138;28;20180;-91
2023/01/27 09:36:00;;;;;;;9.57;3.07;;;;;;;7.28;83.37;98057.06;5094482;28;20629;-91
2023/01/27 09:38:31;;;;;;;4.97;2.57;;;;;;;7.41;83.49;98064.09;5092729;28;20623;-90
2023/01/27 09:41:14;;;;;;;2.73;1.37;;;;;;;7.51;82.16;98060.94;5092881;28;20210;-90
2023/01/27 09:43:54;;;;;;;5.10;2.43;;;;;;;7.18;83.92;98069.75;5074835;28;20177;-90
2023/01/27 09:47:05;;;;;;;4.93;2.17;;;;;;;7.38;83.21;98056.44;5072332;28;20168;-91
2023/01/27 09:49:36;;;;;;;4.80;2.23;;;;;;;7.62;82.77;98059.41;5052846;28;20223;-90
2023/01/27 09:52:32;;;;;;;5.10;2.37;;;;;;;7.72;81.15;98057.09;5072580;28;20651;-90
2023/01/27 09:55:39;;;;;;;5.50;2.53;;;;;;;7.77;81.57;98055.91;5071484;28;20180;-90
2023/01/27 09:58:22;;;;;;;4.17;2.00;;;;;;;7.77;81.37;98061.13;5072730;28;20250;-91
2023/01/27 10:01:17;;;;;;;4.80;2.23;;;;;;;7.69;81.85;98060.72;5073253;28;20161;-90
2023/01/27 10:03:49;;;;;;;4.57;2.47;;;;;;;7.93;80.13;98054.09;5072528;28;20174;-91
2023/01/27 10:06:35;;;;;;;4.40;1.80;;;;;;;7.61;81.63;98049.06;5076523;28;20629;-91
2023/01/27 10:09:34;;;;;;;3.73;2.03;;;;;;;7.86;80.84;98042.31;5092033;28;20219;-91
2023/01/27 10:12:21;;;;;;;5.10;1.80;;;;;;;7.89;79.51;98036.91;5092411;28;20225;-90
2023/01/27 10:15:10;;;;;;;5.13;2.43;;;;;;;7.83;79.51;98031.22;5091284;28;20392;-90
2023/01/27 10:17:35;;;;;;;4.90;1.93;;;;;;;7.85;79.83;98021.53;5073378;28;20204;-90
2023/01/27 10:20:06;;;;;;;6.77;2.30;;;;;;;7.97;79.65;98018.19;5079868;28;20187;-90
2023/01/27 10:22:55;;;;;;;4.60;2.17;;;;;;;7.84;80.16;98019.84;5086122;28;20172;-91
2023/01/27 10:25:45;;;;;;;6.27;2.50;;;;;;;7.63;81.31;98021.13;5092122;28;20173;-91
2023/01/27 10:28:14;;;;;;;5.33;2.50;;;;;;;7.51;81.55;98020.06;5088113;28;20180;-91
2023/01/27 10:31:16;;;;;;;7.73;2.50;;;;;;;7.57;82.88;98011.06;5092182;28;20203;-91
2023/01/27 10:33:51;;;;;;;4.33;2.13;;;;;;;7.60;81.23;98005.69;5079643;28;20730;-90
2023/01/27 10:36:41;;;;;;;5.97;2.53;;;;;;;7.64;82.06;97994.97;5092363;28;20232;-91
2023/01/27 10:39:23;;;;;;;5.83;2.00;;;;;;;7.58;83.27;97992.72;5091222;28;20180;-91
2023/01/27 10:42:08;;;;;;;4.67;1.90;;;;;;;7.58;82.67;97982.28;5091111;28;20237;-90
2023/01/27 10:44:47;;;;;;;11.17;3.97;;;;;;;7.64;83.50;97981.94;5097311;28;20668;-90
2023/01/27 10:47:31;;;;;;;8.53;3.97;;;;;;;7.54;83.83;97980.78;5096094;28;20198;-90
2023/01/27 10:50:05;;;;;;;9.40;3.03;;;;;;;7.67;84.17;97979.16;5095938;28;20215;-90
2023/01/27 10:52:45;;;;;;;7.77;3.17;;;;;;;7.75;83.62;97969.09;5095792;28;20506;-90
2023/01/27 10:55:18;;;;;;;9.33;3.10;;;;;;;7.44;84.84;97971.84;5093878;28;20172;-90
2023/01/27 10:57:54;;;;;;;5.43;2.43;;;;;;;7.74;84.46;97974.38;5095491;28;20217;-90
2023/01/27 11:00:38;;;;;;;6.13;2.87;;;;;;;7.84;84.37;97965.91;5095041;28;20172;-90
2023/01/27 11:03:10;;;;;;;5.33;2.83;;;;;;;7.74;84.88;97970.00;5093880;28;20602;-91
2023/01/27 11:05:40;;;;;;;9.53;2.60;;;;;;;7.94;84.18;97966.19;5095587;28;20196;-89
2023/01/27 11:08:16;;;;;;;10.20;3.03;;;;;;;8.08;83.63;97961.00;5093174;28;20179;-90
2023/01/27 11:13:31;;;;;;;9.67;2.67;;;;;;;8.01;83.56;97952.72;5093872;28;20302;-89
2023/01/27 11:15:59;;;;;;;7.27;2.90;;;;;;;7.88;84.33;97956.16;5094259;28;20172;-89
2023/01/27 11:18:30;;;;;;;4.70;2.00;;;;;;;7.80;85.64;97951.41;5093961;28;20244;-90
2023/01/27 11:21:04;;;;;;;7.43;3.03;;;;;;;7.70;86.27;97945.06;5094623;28;20248;-90
2023/01/27 11:23:33;;;;;;;8.50;2.70;;;;;;;7.79;85.79;97946.25;5093902;28;20261;-90
2023/01/27 11:26:25;;;;;;;4.27;2.20;;;;;;;7.93;85.10;97944.50;5092098;28;20177;-90
2023/01/27 11:29:19;;;;;;;6.27;2.17;;;;;;;7.72;86.36;97940.59;5095934;28;20176;-91
2023/01/27 11:32:00;;;;;;;12.83;2.80;;;;;;;8.00;86.04;97937.13;5086332;28;20185;-91
2023/01/27 11:34:44;;;;;;;6.17;2.60;;;;;;;8.26;84.61;97943.34;5090633;28;20186;-90
2023/01/27 11:37:18;;;;;;;6.67;2.57;;;;;;;8.31;84.11;97943.94;5093819;28;20241;-90
2023/01/27 11:39:43;;;;;;;7.63;3.57;;;;;;;8.03;84.52;97944.78;5094160;28;20165;-90
2023/01/27 11:42:10;;;;;;;7.13;3.07;;;;;;;7.89;85.40;97942.16;5095146;28;20241;-91
2023/01/27 11:44:36;;;;;;;10.77;3.30;;;;;;;8.00;86.09;97935.38;5094251;28;20273;-90
2023/01/27 11:47:05;;;;;;;8.37;3.00;;;;;;;8.06;85.88;97934.16;5095837;28;20220;-90
2023/01/27 11:49:34;;;;;;;8.73;2.63;;;;;;;8.25;85.66;97933.84;5095065;28;20591;-91
2023/01/27 11:52:12;;;;;;;6.00;2.40;;;;;;;8.48;85.80;97928.06;5095412;28;20217;-90
2023/01/27 11:55:05;;;;;;;8.73;3.37;;;;;;;8.54;84.55;97927.69;5095827;28;20646;-90
2023/01/27 11:57:32;;;;;;;7.70;2.83;;;;;;;8.64;84.45;97920.94;5084871;28;20212;-91
2023/01/27 12:00:15;;;;;;;10.50;2.87;;;;;;;8.61;84.95;97915.91;5094731;28;20236;-90
2023/01/27 12:02:43;;;;;;;9.77;3.00;;;;;;;8.66;84.16;97913.81;5094705;28;20179;-91
2023/01/27 12:05:29;;;;;;;8.40;2.80;;;;;;;8.27;84.57;97916.34;5094724;28;20186;-90
2023/01/27 12:07:57;;;;;;;10.37;2.87;;;;;;;8.45;85.09;97909.97;5093604;28;20615;-89
2023/01/27 12:10:43;;;;;;;9.80;2.70;;;;;;;8.91;83.59;97915.69;5094823;28;20577;-91
2023/01/27 12:13:20;;;;;;;5.87;2.63;;;;;;;9.03;81.25;97918.34;5095485;28;20249;-90
2023/01/27 12:15:51;;;;;;;14.67;2.70;;;;;;;8.69;82.63;97903.19;5094559;28;20186;-91
2023/01/27 12:18:17;;;;;;;6.97;2.87;;;;;;;8.60;84.32;97895.94;5094418;28;20190;-92
2023/01/27 12:20:49;;;;;;;8.53;3.17;;;;;;;8.72;83.91;97894.31;5094290;28;20551;-90
2023/01/27 12:23:22;;;;;;;5.23;2.07;;;;;;;8.69;83.53;97884.91;5095450;28;20179;-90
2023/01/27 12:25:53;;;;;;;7.83;2.27;;;;;;;8.93;81.70;97891.16;5095394;28;20176;-90
2023/01/27 12:28:24;;;;;;;6.60;1.87;;;;;;;9.16;81.12;97887.84;5095248;28;20194;-90